Terminal Aerodrome Forecast
Issued by NWS

Home | Current Version | Previous Version | Text Only | Print | Product List | Glossary On
Versions: 1 2 3 4 5 6 7 8 9 10 11 12 13 14 15 16 17 18 19 20
000
FTUS44 KBMX 281120
TAFTOI
TAF
KTOI 281120Z 2812/0112 13004KT 4SM BR OVC005
     FM281600 15006KT P6SM OVC008
     FM281900 18010KT P6SM BKN025
     FM010500 19005KT 4SM BR OVC007=

USA.gov is the U.S. government's official web portal to all federal, state and local government web resources and services.